El Progreso, Guatemala
Current Conditions -  °F | °C
As of 2:00 AM on Sunday 26 Oct 2014 (Local Time) from MGGT Reporting Station
Broken Clouds Broken Clouds  
Wind Chill: 63°   Ceiling: 1700
Heat Index: 63°   Visibility: 6mi
Dew Point: 57°   Wind: 14mph
Humidity: 82%   Direction: 360°N
Pressure: 30.24"   Gusts: NA
Location:  14.35°N, 89.85°W
Report Text: MGGT 260800Z 36012KT 9999 BKN017 17/14 Q1024 A3024
Loading
Personal Weather Stations






























Interactive Weather Map
Tropical Storm Tracking
New forecast layout! Learn more

10-Day Weather Forecast

Advertisements
Track Severe Weather on mobile